createdAt,value
2019-02-06T05:00:40.893Z,0
2019-02-06T05:04:08.768Z,0
2019-02-06T05:07:36.662Z,0
2019-02-06T05:11:04.546Z,0
2019-02-06T05:14:32.433Z,0
2019-02-06T05:18:00.302Z,0
2019-02-06T05:21:28.197Z,0
2019-02-06T05:24:56.082Z,0
2019-02-06T05:28:23.957Z,0
2019-02-06T05:31:51.865Z,0
2019-02-06T05:35:19.761Z,0
2019-02-06T05:38:47.626Z,0
2019-02-06T05:42:15.509Z,0
2019-02-06T05:45:43.403Z,0
2019-02-06T05:49:11.268Z,0
2019-02-06T05:52:39.150Z,0
2019-02-06T05:56:07.051Z,0
2019-02-06T05:59:34.915Z,0
2019-02-06T06:03:02.803Z,0
2019-02-06T06:06:30.729Z,0
2019-02-06T06:09:58.931Z,0
2019-02-06T06:13:26.805Z,0
2019-02-06T06:16:58.317Z,0
2019-02-06T06:20:26.344Z,0
2019-02-06T06:23:54.215Z,0
2019-02-06T06:27:22.105Z,0
2019-02-06T06:30:50.985Z,0
2019-02-06T06:34:18.864Z,0
2019-02-06T06:37:57.446Z,0
2019-02-06T06:41:19.713Z,0
2019-02-06T06:44:47.553Z,0
2019-02-06T06:48:15.460Z,0
2019-02-06T06:51:43.345Z,5.625
2019-02-06T06:55:11.217Z,5.625
2019-02-06T06:58:39.099Z,5.625
2019-02-06T07:02:06.987Z,5.625
2019-02-06T07:05:35.871Z,5.625
2019-02-06T07:09:03.746Z,5.625
2019-02-06T07:12:31.657Z,11.25
2019-02-06T07:16:01.532Z,11.25
2019-02-06T07:19:29.396Z,16.875
2019-02-06T07:22:58.374Z,16.875
2019-02-06T07:26:26.162Z,28.125
2019-02-06T07:29:54.047Z,28.125
2019-02-06T07:33:21.943Z,33.75
2019-02-06T07:36:49.831Z,45
2019-02-06T07:40:17.769Z,50.625
2019-02-06T07:43:45.639Z,50.625
2019-02-06T07:47:13.524Z,56.25
2019-02-06T07:50:42.409Z,56.25
2019-02-06T07:54:10.285Z,50.625
2019-02-06T07:57:38.173Z,45
2019-02-06T08:01:06.145Z,50.625
2019-02-06T08:04:34.017Z,56.25
2019-02-06T08:08:01.910Z,61.875
2019-02-06T08:11:29.798Z,61.875
2019-02-06T08:14:57.677Z,67.5
2019-02-06T08:18:26.558Z,56.25
2019-02-06T08:21:54.447Z,67.5
2019-02-06T08:25:22.348Z,73.125
2019-02-06T08:28:50.219Z,78.75
2019-02-06T08:32:18.113Z,90
2019-02-06T08:35:45.999Z,90
2019-02-06T08:39:13.965Z,101.25
2019-02-06T08:42:41.761Z,112.5
2019-02-06T08:46:09.727Z,135
2019-02-06T08:49:37.522Z,129.375
2019-02-06T08:53:05.407Z,112.5
2019-02-06T08:56:33.410Z,118.125
2019-02-06T09:00:01.193Z,118.125
2019-02-06T09:03:29.061Z,146.25
2019-02-06T09:06:56.949Z,151.875
2019-02-06T09:10:24.824Z,140.625
2019-02-06T09:13:53.615Z,140.625
2019-02-06T09:17:21.505Z,135
2019-02-06T09:20:52.596Z,146.25
2019-02-06T09:24:19.273Z,146.25
2019-02-06T09:27:47.159Z,163.125
2019-02-06T09:31:15.078Z,151.875
2019-02-06T09:34:42.944Z,168.75
2019-02-06T09:38:10.839Z,174.375
2019-02-06T09:41:38.738Z,185.625
2019-02-06T09:45:06.614Z,185.625
2019-02-06T09:48:35.492Z,191.25
2019-02-06T09:52:03.408Z,157.5
2019-02-06T09:55:31.303Z,151.875
2019-02-06T09:58:59.175Z,146.25
2019-02-06T10:02:27.069Z,123.75
2019-02-06T10:05:54.963Z,135
2019-02-06T10:09:24.812Z,146.25
2019-02-06T10:12:52.704Z,157.5
2019-02-06T10:16:22.577Z,168.75
2019-02-06T10:19:50.606Z,174.375
2019-02-06T10:23:18.375Z,163.125
2019-02-06T10:26:46.262Z,174.375
2019-02-06T10:30:14.131Z,174.375
2019-02-06T10:33:42.019Z,151.875
2019-02-06T10:37:09.929Z,140.625
2019-02-06T10:40:37.800Z,146.25
2019-02-06T10:44:05.713Z,146.25
2019-02-06T10:47:33.598Z,140.625
2019-02-06T10:51:02.478Z,135
2019-02-06T10:54:30.359Z,140.625
2019-02-06T10:57:58.235Z,168.75
2019-02-06T11:01:26.115Z,213.75
2019-02-06T11:04:53.997Z,303.75
2019-02-06T11:08:21.862Z,292.5
2019-02-06T11:11:50.742Z,241.875
2019-02-06T11:15:18.630Z,213.75
2019-02-06T11:18:47.493Z,236.25
2019-02-06T11:22:16.438Z,270
2019-02-06T11:25:44.324Z,275.625
2019-02-06T11:29:12.201Z,264.375
2019-02-06T11:32:40.092Z,286.875
2019-02-06T11:36:07.975Z,213.75
2019-02-06T11:39:35.853Z,163.125
2019-02-06T11:43:03.737Z,146.25
2019-02-06T11:46:31.623Z,106.875
2019-02-06T11:49:59.504Z,140.625
2019-02-06T11:53:28.379Z,151.875
2019-02-06T11:56:56.308Z,168.75
2019-02-06T12:00:24.156Z,146.25
2019-02-06T12:03:52.028Z,140.625
2019-02-06T12:07:19.925Z,123.75
2019-02-06T12:10:47.812Z,123.75
2019-02-06T12:14:15.687Z,123.75
2019-02-06T12:17:43.577Z,101.25
2019-02-06T12:21:11.469Z,95.625
2019-02-06T12:24:41.325Z,78.75
2019-02-06T12:28:09.245Z,84.375
2019-02-06T12:31:37.153Z,73.125
2019-02-06T12:35:05.016Z,84.375
2019-02-06T12:38:32.904Z,90
2019-02-06T12:42:00.846Z,95.625
2019-02-06T12:45:28.775Z,106.875
2019-02-06T12:48:56.748Z,112.5
2019-02-06T12:52:24.639Z,106.875
2019-02-06T12:55:52.584Z,90
2019-02-06T12:59:20.483Z,67.5
2019-02-06T13:02:48.374Z,73.125
2019-02-06T13:06:16.260Z,78.75
2019-02-06T13:09:44.313Z,78.75
2019-02-06T13:13:12.205Z,84.375
2019-02-06T13:16:41.158Z,84.375
2019-02-06T13:20:09.087Z,73.125
2019-02-06T13:23:36.972Z,61.875
2019-02-06T13:27:04.871Z,56.25
2019-02-06T13:30:32.760Z,50.625
2019-02-06T13:34:01.157Z,73.125
2019-02-06T13:37:29.049Z,73.125
2019-02-06T13:40:57.010Z,67.5
2019-02-06T13:44:24.930Z,61.875
2019-02-06T13:47:52.905Z,61.875
2019-02-06T13:51:23.009Z,61.875
2019-02-06T13:54:50.925Z,50.625
2019-02-06T13:58:21.837Z,33.75
2019-02-06T14:01:49.727Z,33.75
2019-02-06T14:05:17.596Z,45
2019-02-06T14:08:45.529Z,50.625
2019-02-06T14:12:14.367Z,61.875
2019-02-06T14:15:43.237Z,56.25
2019-02-06T14:19:11.129Z,45
2019-02-06T14:22:39.020Z,45
2019-02-06T14:26:06.909Z,39.375
2019-02-06T14:29:34.774Z,39.375
2019-02-06T14:33:02.668Z,45
2019-02-06T14:36:30.659Z,45
2019-02-06T14:39:59.608Z,33.75
2019-02-06T14:43:27.499Z,50.625
2019-02-06T14:46:55.390Z,61.875
2019-02-06T14:50:23.262Z,45
2019-02-06T14:53:51.154Z,33.75
2019-02-06T14:57:20.045Z,28.125
2019-02-06T15:00:59.246Z,22.5
2019-02-06T15:04:19.779Z,22.5
2019-02-06T15:07:47.687Z,22.5
2019-02-06T15:11:20.971Z,22.5
2019-02-06T15:14:49.396Z,16.875
2019-02-06T15:18:17.266Z,11.25
2019-02-06T15:21:45.151Z,11.25
2019-02-06T15:25:13.042Z,5.625
2019-02-06T15:28:40.910Z,11.25
2019-02-06T15:32:08.790Z,5.625
2019-02-06T15:35:36.679Z,5.625
2019-02-06T15:39:04.549Z,5.625
2019-02-06T15:42:32.432Z,0
2019-02-06T15:46:01.318Z,0
2019-02-06T15:49:29.182Z,0
2019-02-06T15:52:57.076Z,0
2019-02-06T15:56:24.965Z,0
2019-02-06T15:59:52.840Z,0
2019-02-06T16:03:20.729Z,0
2019-02-06T16:06:48.617Z,0
2019-02-06T16:10:16.498Z,0
2019-02-06T16:13:44.388Z,0
2019-02-06T16:17:12.277Z,0
2019-02-06T16:20:40.154Z,0
2019-02-06T16:24:08.039Z,0
2019-02-06T16:27:35.927Z,0
2019-02-06T16:31:03.792Z,0
2019-02-06T16:34:31.687Z,0
2019-02-06T16:37:59.572Z,0
2019-02-06T16:41:27.456Z,0
2019-02-06T16:44:55.327Z,0
2019-02-06T16:48:23.215Z,0
2019-02-06T16:51:51.160Z,0
2019-02-06T16:55:19.038Z,0
2019-02-06T16:58:46.931Z,0
2019-02-06T17:02:14.819Z,0
2019-02-06T17:05:42.699Z,0
2019-02-06T17:09:10.589Z,0
2019-02-06T17:12:38.531Z,0
2019-02-06T17:16:06.362Z,0
2019-02-06T17:19:34.251Z,0
2019-02-06T17:23:02.121Z,0
2019-02-06T17:26:30.018Z,0
2019-02-06T17:29:57.908Z,0
2019-02-06T17:33:25.780Z,0
2019-02-06T17:36:53.676Z,0
2019-02-06T17:40:21.574Z,0
2019-02-06T17:43:49.443Z,0
2019-02-06T17:47:17.338Z,0
2019-02-06T17:50:45.227Z,0
2019-02-06T17:54:13.105Z,0
2019-02-06T17:57:40.990Z,0
2019-02-06T18:01:08.878Z,0
2019-02-06T18:04:36.759Z,0
2019-02-06T18:08:04.651Z,0
2019-02-06T18:11:32.535Z,0
2019-02-06T18:15:00.408Z,0
2019-02-06T18:18:28.292Z,0
2019-02-06T18:21:56.179Z,0
2019-02-06T18:25:24.056Z,0
2019-02-06T18:28:51.956Z,0
2019-02-06T18:32:19.839Z,0
2019-02-06T18:35:47.732Z,0
2019-02-06T18:39:15.604Z,0
2019-02-06T18:42:43.490Z,0
2019-02-06T18:46:11.386Z,0
2019-02-06T18:49:39.261Z,0
2019-02-06T18:53:08.147Z,0
2019-02-06T18:56:37.037Z,0
2019-02-06T19:00:04.919Z,0
2019-02-06T19:03:33.801Z,0
2019-02-06T19:07:01.690Z,0
2019-02-06T19:10:29.581Z,0
2019-02-06T19:13:58.679Z,0
2019-02-06T19:17:28.750Z,0
2019-02-06T19:20:57.707Z,0
2019-02-06T19:24:27.293Z,0
2019-02-06T19:27:57.274Z,0
2019-02-06T19:31:25.193Z,0
2019-02-06T19:34:53.139Z,0
2019-02-06T19:38:21.089Z,0
2019-02-06T19:41:49.041Z,0
2019-02-06T19:45:17.003Z,0
2019-02-06T19:48:45.097Z,0
2019-02-06T19:52:12.993Z,0
2019-02-06T19:55:40.880Z,0
2019-02-06T19:59:08.885Z,0
2019-02-06T20:02:36.794Z,0
2019-02-06T20:06:06.695Z,0
2019-02-06T20:09:34.640Z,0
2019-02-06T20:13:10.794Z,0
2019-02-06T20:16:36.421Z,0
2019-02-06T20:20:04.297Z,0
2019-02-06T20:23:32.192Z,0
2019-02-06T20:27:00.123Z,0
2019-02-06T20:30:27.996Z,0
2019-02-06T20:33:55.908Z,0
2019-02-06T20:37:23.804Z,0
2019-02-06T20:40:51.681Z,0
2019-02-06T20:44:19.575Z,0
2019-02-06T20:47:47.466Z,0
2019-02-06T20:51:15.373Z,0
2019-02-06T20:54:43.287Z,0
2019-02-06T20:58:11.174Z,0
2019-02-06T21:01:40.124Z,0
2019-02-06T21:05:08.009Z,0
2019-02-06T21:08:35.903Z,0
2019-02-06T21:12:03.778Z,0
2019-02-06T21:15:33.100Z,0
2019-02-06T21:19:00.554Z,0
2019-02-06T21:22:28.431Z,0
2019-02-06T21:25:56.351Z,0
2019-02-06T21:29:24.251Z,0
2019-02-06T21:32:52.251Z,0
2019-02-06T21:36:20.119Z,0
2019-02-06T21:39:48.019Z,0
2019-02-06T21:43:16.886Z,0
2019-02-06T21:46:44.767Z,0
2019-02-06T21:50:13.645Z,0
2019-02-06T21:53:41.533Z,0
2019-02-06T21:57:09.405Z,0
2019-02-06T22:00:37.288Z,0
2019-02-06T22:04:05.172Z,0
2019-02-06T22:07:33.075Z,0
2019-02-06T22:11:00.959Z,0
2019-02-06T22:14:29.841Z,0
2019-02-06T22:17:57.727Z,0
2019-02-06T22:21:25.600Z,0
2019-02-06T22:24:53.498Z,0
2019-02-06T22:28:21.385Z,0
2019-02-06T22:31:49.260Z,0
2019-02-06T22:35:18.145Z,0
2019-02-06T22:38:46.031Z,0
2019-02-06T22:42:14.917Z,0
2019-02-06T22:45:42.803Z,0
2019-02-06T22:49:10.690Z,0
2019-02-06T22:52:38.576Z,0
2019-02-06T22:56:06.448Z,0
2019-02-06T22:59:34.338Z,0
